Time;durP1;ratioP1;P1;durP2;ratioP2;P2;SDS_P1;SDS_P2;PMS_P1;PMS_P2;Temp;Humidity;BMP_temperature;BMP_pressure;BME280_temperature;BME280_humidity;BME280_pressure;Samples;Min_cycle;Max_cycle;Signal;HPM_P1;HPM_P2
2021/08/05 00:01:11;;;;;;;5.20;2.33;;;;;;;;;;10476369;28;20216;-75
2021/08/05 00:06:15;;;;;;;5.10;2.50;;;;;;;;;;10469078;28;20651;-75
2021/08/05 00:11:17;;;;;;;6.40;2.67;;;;;;;;;;10472206;28;20572;-75
2021/08/05 00:16:20;;;;;;;5.20;2.50;;;;;;;;;;10478294;28;20331;-75
2021/08/05 00:21:24;;;;;;;8.70;3.17;;;;;;;;;;10487976;28;20272;-74
2021/08/05 00:26:26;;;;;;;8.10;3.40;;;;;;;;;;10482403;28;20292;-73
2021/08/05 00:31:29;;;;;;;7.33;3.60;;;;;;;;;;10473034;28;20193;-74
2021/08/05 00:36:33;;;;;;;6.50;3.13;;;;;;;;;;10476009;28;20275;-75
2021/08/05 00:41:36;;;;;;;8.33;3.53;;;;;;;;;;10476780;28;20198;-76
2021/08/05 00:46:38;;;;;;;8.80;3.90;;;;;;;;;;10469686;28;20981;-76
2021/08/05 00:51:42;;;;;;;8.00;3.97;;;;;;;;;;10479138;28;20275;-75
2021/08/05 00:56:45;;;;;;;8.17;3.60;;;;;;;;;;10477685;28;20669;-78
2021/08/05 01:01:50;;;;;;;9.50;4.17;;;;;;;;;;10469375;28;21859;-76
2021/08/05 01:06:59;;;;;;;9.30;4.00;;;;;;;;;;10476175;28;20618;-75
2021/08/05 01:12:05;;;;;;;9.13;4.10;;;;;;;;;;10475597;28;20211;-76
2021/08/05 01:17:11;;;;;;;8.80;4.20;;;;;;;;;;10468963;28;20217;-76
2021/08/05 01:22:31;;;;;;;6.63;2.77;;;;;;;;;;10478221;28;20261;-74
2021/08/05 01:27:36;;;;;;;5.90;2.50;;;;;;;;;;10473101;28;20217;-76
2021/08/05 01:32:39;;;;;;;5.53;2.30;;;;;;;;;;10478864;28;20200;-76
2021/08/05 01:37:42;;;;;;;6.53;2.87;;;;;;;;;;10474430;28;20297;-76
2021/08/05 01:42:47;;;;;;;8.13;3.43;;;;;;;;;;10472930;28;20189;-77
2021/08/05 01:47:51;;;;;;;4.17;2.10;;;;;;;;;;10471277;28;20616;-75
2021/08/05 01:52:54;;;;;;;5.13;2.33;;;;;;;;;;10475539;28;20212;-74
2021/08/05 01:57:58;;;;;;;4.80;2.20;;;;;;;;;;10472484;28;20292;-76
2021/08/05 02:03:02;;;;;;;5.43;1.87;;;;;;;;;;10473898;28;20335;-75
2021/08/05 02:08:06;;;;;;;2.67;1.40;;;;;;;;;;10470494;28;20634;-75
2021/08/05 02:13:13;;;;;;;2.10;1.20;;;;;;;;;;10477130;28;20188;-75
2021/08/05 02:18:15;;;;;;;2.70;1.37;;;;;;;;;;10477731;28;20295;-75
2021/08/05 02:23:18;;;;;;;2.67;1.40;;;;;;;;;;10465212;28;20618;-75
2021/08/05 02:28:24;;;;;;;3.03;1.37;;;;;;;;;;10472810;28;20212;-76
2021/08/05 02:33:28;;;;;;;2.20;1.27;;;;;;;;;;10469977;28;20631;-76
2021/08/05 02:38:30;;;;;;;2.23;1.10;;;;;;;;;;10471508;28;20697;-74
2021/08/05 02:43:35;;;;;;;3.37;1.50;;;;;;;;;;10459968;28;20200;-76
2021/08/05 02:48:38;;;;;;;2.53;1.50;;;;;;;;;;10485763;28;20691;-76
2021/08/05 02:53:40;;;;;;;4.73;1.80;;;;;;;;;;10465106;28;20254;-76
2021/08/05 02:58:45;;;;;;;2.97;1.50;;;;;;;;;;10469654;28;20269;-75
2021/08/05 03:03:50;;;;;;;4.30;1.60;;;;;;;;;;10473439;28;20205;-76
2021/08/05 03:08:53;;;;;;;2.30;1.43;;;;;;;;;;10480774;28;20215;-75
2021/08/05 03:13:57;;;;;;;2.63;1.47;;;;;;;;;;10478658;28;20283;-74
2021/08/05 03:19:00;;;;;;;4.33;1.60;;;;;;;;;;10478644;28;20648;-77
2021/08/05 03:24:02;;;;;;;5.33;1.90;;;;;;;;;;10468315;28;20200;-76
2021/08/05 03:29:06;;;;;;;4.80;2.07;;;;;;;;;;10477122;28;20251;-76
2021/08/05 03:34:09;;;;;;;4.90;2.20;;;;;;;;;;10475861;28;20199;-76
2021/08/05 03:39:12;;;;;;;5.17;2.40;;;;;;;;;;10477366;28;20231;-76
2021/08/05 03:44:16;;;;;;;6.93;3.20;;;;;;;;;;10466801;28;20197;-76
2021/08/05 03:49:18;;;;;;;8.10;3.63;;;;;;;;;;10480996;28;20326;-77
2021/08/05 03:54:21;;;;;;;7.57;3.67;;;;;;;;;;10484605;28;20232;-77
2021/08/05 03:59:24;;;;;;;8.37;3.77;;;;;;;;;;10479779;28;20240;-77
2021/08/05 04:04:27;;;;;;;10.37;4.27;;;;;;;;;;10487872;28;20728;-76
2021/08/05 04:09:30;;;;;;;8.10;4.10;;;;;;;;;;10487580;28;20247;-77
2021/08/05 04:14:34;;;;;;;8.90;4.50;;;;;;;;;;10481115;28;20189;-77
2021/08/05 04:19:44;;;;;;;9.23;4.47;;;;;;;;;;10487134;28;20225;-74
2021/08/05 04:24:51;;;;;;;10.10;4.50;;;;;;;;;;10475066;28;20587;-76
2021/08/05 04:29:55;;;;;;;9.63;4.33;;;;;;;;;;10476815;28;20254;-76
2021/08/05 04:34:58;;;;;;;9.70;4.80;;;;;;;;;;10482261;28;20616;-77
2021/08/05 04:40:00;;;;;;;10.57;4.87;;;;;;;;;;10478017;28;20685;-77
2021/08/05 04:45:05;;;;;;;8.47;4.50;;;;;;;;;;10479705;28;20177;-75
2021/08/05 04:50:08;;;;;;;8.83;4.27;;;;;;;;;;10466433;28;20269;-76
2021/08/05 04:55:10;;;;;;;8.90;4.17;;;;;;;;;;10485087;28;20227;-76
2021/08/05 05:00:14;;;;;;;8.37;4.10;;;;;;;;;;10469103;28;20218;-78
2021/08/05 05:05:17;;;;;;;7.23;3.80;;;;;;;;;;10468466;28;20279;-77
2021/08/05 05:10:20;;;;;;;6.33;3.27;;;;;;;;;;10461253;28;20237;-77
2021/08/05 05:15:24;;;;;;;8.53;3.67;;;;;;;;;;10489622;28;20192;-76
2021/08/05 05:20:27;;;;;;;7.67;3.50;;;;;;;;;;10475183;28;20224;-75
2021/08/05 05:25:30;;;;;;;7.97;3.47;;;;;;;;;;10466746;28;20256;-75
2021/08/05 05:30:35;;;;;;;6.43;3.20;;;;;;;;;;10479110;28;20331;-75
2021/08/05 05:35:38;;;;;;;6.17;3.07;;;;;;;;;;10481285;28;20228;-76
2021/08/05 05:40:41;;;;;;;5.10;2.67;;;;;;;;;;10471580;28;20655;-78
2021/08/05 05:45:45;;;;;;;6.77;2.80;;;;;;;;;;10484985;28;20196;-76
2021/08/05 05:50:47;;;;;;;6.03;2.83;;;;;;;;;;10479221;28;20200;-78
2021/08/05 05:55:52;;;;;;;6.30;3.00;;;;;;;;;;10470275;28;20267;-74
2021/08/05 06:00:56;;;;;;;5.73;2.70;;;;;;;;;;10487787;28;20642;-77
2021/08/05 06:05:59;;;;;;;4.93;2.63;;;;;;;;;;10471084;28;20759;-76
2021/08/05 06:11:02;;;;;;;4.57;2.57;;;;;;;;;;10476906;28;20192;-76
2021/08/05 06:16:06;;;;;;;5.57;2.13;;;;;;;;;;10475813;28;20212;-77
2021/08/05 06:21:09;;;;;;;5.07;2.30;;;;;;;;;;10478737;28;20667;-76
2021/08/05 06:26:11;;;;;;;4.40;2.33;;;;;;;;;;10481153;28;20335;-77
2021/08/05 06:31:16;;;;;;;5.10;2.17;;;;;;;;;;10484972;28;20189;-76
2021/08/05 06:36:18;;;;;;;5.10;2.40;;;;;;;;;;10482848;28;20706;-76
2021/08/05 06:41:21;;;;;;;7.23;2.23;;;;;;;;;;10484695;28;20204;-76
2021/08/05 06:46:27;;;;;;;5.77;2.53;;;;;;;;;;10480334;28;20216;-74
2021/08/05 06:51:30;;;;;;;6.60;2.70;;;;;;;;;;10489697;28;20708;-78
2021/08/05 06:56:32;;;;;;;5.80;2.70;;;;;;;;;;10487311;28;20828;-76
2021/08/05 07:01:36;;;;;;;8.27;2.87;;;;;;;;;;10486702;28;20205;-77
2021/08/05 07:06:39;;;;;;;7.47;2.83;;;;;;;;;;10483378;28;20209;-76
2021/08/05 07:11:42;;;;;;;5.53;2.37;;;;;;;;;;10478034;28;20227;-76
2021/08/05 07:16:46;;;;;;;6.00;2.50;;;;;;;;;;10488998;28;20233;-76
2021/08/05 07:21:48;;;;;;;5.77;2.63;;;;;;;;;;10471361;28;20208;-74
2021/08/05 07:26:51;;;;;;;6.27;2.53;;;;;;;;;;10480818;28;20281;-77
2021/08/05 07:31:55;;;;;;;4.77;2.07;;;;;;;;;;10487603;28;20644;-76
2021/08/05 07:36:57;;;;;;;7.67;2.37;;;;;;;;;;10483229;28;20242;-76
2021/08/05 07:42:00;;;;;;;6.73;2.60;;;;;;;;;;10482489;28;20328;-76
2021/08/05 07:47:04;;;;;;;5.63;2.57;;;;;;;;;;10489267;28;20223;-76
2021/08/05 07:52:07;;;;;;;7.27;2.80;;;;;;;;;;10484527;28;20290;-76
2021/08/05 07:57:09;;;;;;;8.13;4.30;;;;;;;;;;10482766;28;20213;-77
2021/08/05 08:02:13;;;;;;;8.27;3.27;;;;;;;;;;10479086;28;20302;-77
2021/08/05 08:07:16;;;;;;;8.13;3.27;;;;;;;;;;10476389;28;20695;-77
2021/08/05 08:12:18;;;;;;;7.70;3.13;;;;;;;;;;10487222;28;20705;-78
2021/08/05 08:17:22;;;;;;;7.73;3.23;;;;;;;;;;10479265;28;20688;-79
2021/08/05 08:22:25;;;;;;;8.03;3.30;;;;;;;;;;10485295;28;20216;-77
2021/08/05 08:27:27;;;;;;;7.60;3.30;;;;;;;;;;10477424;28;20244;-77
2021/08/05 08:32:31;;;;;;;6.67;3.33;;;;;;;;;;10480440;28;20730;-78
2021/08/05 08:37:34;;;;;;;9.27;3.40;;;;;;;;;;10472985;28;20220;-77
2021/08/05 08:42:36;;;;;;;9.53;3.50;;;;;;;;;;10486171;28;20243;-77
2021/08/05 08:47:41;;;;;;;7.93;3.43;;;;;;;;;;10484594;28;20291;-76
2021/08/05 08:52:45;;;;;;;6.90;3.33;;;;;;;;;;10461623;28;20192;-78
2021/08/05 08:57:48;;;;;;;7.20;3.40;;;;;;;;;;10488524;28;20216;-78
2021/08/05 09:02:52;;;;;;;8.00;3.87;;;;;;;;;;10487481;28;20223;-76
2021/08/05 09:07:57;;;;;;;6.80;3.43;;;;;;;;;;10485449;28;20231;-78
2021/08/05 09:13:00;;;;;;;6.77;3.20;;;;;;;;;;10471958;28;20267;-77
2021/08/05 09:18:04;;;;;;;7.30;3.27;;;;;;;;;;10481595;28;21106;-78
2021/08/05 09:23:07;;;;;;;8.37;3.30;;;;;;;;;;10479476;28;20205;-76
2021/08/05 09:28:14;;;;;;;5.43;3.28;;;;;;;;;;10482001;28;20291;-77
2021/08/05 09:33:18;;;;;;;6.47;2.88;;;;;;;;;;10481548;28;20611;-78
2021/08/05 09:38:22;;;;;;;7.45;3.28;;;;;;;;;;10478829;28;20253;-77
2021/08/05 09:43:28;;;;;;;5.95;3.10;;;;;;;;;;10476317;28;20204;-78
2021/08/05 09:48:40;;;;;;;4.95;3.00;;;;;;;;;;10470212;28;20304;-78
2021/08/05 09:53:59;;;;;;;5.88;3.40;;;;;;;;;;10477079;28;20196;-78
2021/08/05 09:59:12;;;;;;;5.05;2.95;;;;;;;;;;10470916;28;20232;-78
2021/08/05 10:04:32;;;;;;;5.43;3.38;;;;;;;;;;10474101;28;20350;-77
2021/08/05 10:09:37;;;;;;;5.65;3.20;;;;;;;;;;10483098;28;20251;-78
2021/08/05 10:14:40;;;;;;;5.45;3.00;;;;;;;;;;10503095;28;20196;-78
2021/08/05 10:19:43;;;;;;;6.00;2.85;;;;;;;;;;10500443;28;20228;-78
2021/08/05 10:24:48;;;;;;;7.07;3.20;;;;;;;;;;10491823;28;20567;-77
2021/08/05 10:29:51;;;;;;;6.00;2.90;;;;;;;;;;10482447;28;20215;-77
2021/08/05 10:34:54;;;;;;;5.20;2.70;;;;;;;;;;10476967;28;20288;-75
2021/08/05 10:39:58;;;;;;;5.68;2.50;;;;;;;;;;10470546;28;20239;-77
2021/08/05 10:45:01;;;;;;;5.50;2.70;;;;;;;;;;10481739;28;20664;-77
2021/08/05 10:50:05;;;;;;;6.67;2.80;;;;;;;;;;10476059;28;20208;-77
2021/08/05 10:55:22;;;;;;;7.20;4.00;;;;;;;;;;10474951;28;20301;-79
2021/08/05 11:00:24;;;;;;;6.70;2.83;;;;;;;;;;10474569;28;20304;-78
2021/08/05 11:05:40;;;;;;;9.83;3.87;;;;;;;;;;10474872;28;20192;-78
2021/08/05 11:10:44;;;;;;;6.43;2.70;;;;;;;;;;10473409;28;20288;-79
2021/08/05 11:15:50;;;;;;;5.75;2.50;;;;;;;;;;10471462;28;20276;-78
2021/08/05 11:21:23;;;;;;;4.88;2.72;;;;;;;;;;10477546;28;20213;-78
2021/08/05 11:26:27;;;;;;;6.10;2.55;;;;;;;;;;10414844;28;20319;-76
2021/08/05 11:31:33;;;;;;;5.95;2.50;;;;;;;;;;10487290;28;20201;-77
2021/08/05 11:36:40;;;;;;;6.05;2.83;;;;;;;;;;10480610;28;20886;-76
2021/08/05 11:41:48;;;;;;;5.30;2.30;;;;;;;;;;10498980;28;20281;-76
2021/08/05 11:47:10;;;;;;;5.07;2.25;;;;;;;;;;10484568;28;20284;-77
2021/08/05 11:52:14;;;;;;;4.05;2.40;;;;;;;;;;10482645;28;20632;-75
2021/08/05 11:57:18;;;;;;;4.35;2.58;;;;;;;;;;10489278;28;20288;-78
2021/08/05 12:02:22;;;;;;;3.95;2.25;;;;;;;;;;10475014;28;20713;-75
2021/08/05 12:07:26;;;;;;;4.03;2.55;;;;;;;;;;10481825;28;20639;-78
2021/08/05 12:12:34;;;;;;;4.00;2.20;;;;;;;;;;10487050;28;20198;-75
2021/08/05 12:17:41;;;;;;;4.10;2.13;;;;;;;;;;10485672;28;20688;-74
2021/08/05 12:22:46;;;;;;;4.15;2.35;;;;;;;;;;10490865;28;20199;-73
2021/08/05 12:27:58;;;;;;;3.55;1.92;;;;;;;;;;10471943;28;20231;-73
2021/08/05 12:33:03;;;;;;;6.22;2.20;;;;;;;;;;10488197;28;20185;-72
2021/08/05 12:38:07;;;;;;;3.75;2.30;;;;;;;;;;10486651;28;20303;-73
2021/08/05 12:43:13;;;;;;;4.20;2.20;;;;;;;;;;10484368;28;20216;-73
2021/08/05 12:48:15;;;;;;;3.25;2.10;;;;;;;;;;10482459;28;20212;-72
2021/08/05 12:53:29;;;;;;;2.72;1.85;;;;;;;;;;10482992;28;20192;-73
2021/08/05 12:58:33;;;;;;;3.72;1.80;;;;;;;;;;10482362;28;20700;-71
2021/08/05 13:03:39;;;;;;;1.83;1.40;;;;;;;;;;10494939;28;20209;-71
2021/08/05 13:08:44;;;;;;;2.47;1.48;;;;;;;;;;10471778;28;20709;-71
2021/08/05 13:13:49;;;;;;;4.60;1.80;;;;;;;;;;10470258;28;20193;-72
2021/08/05 13:19:01;;;;;;;3.97;1.50;;;;;;;;;;10472801;28;20248;-71
2021/08/05 13:24:14;;;;;;;2.72;1.60;;;;;;;;;;10472680;28;20213;-71
2021/08/05 13:29:38;;;;;;;5.03;1.90;;;;;;;;;;10477941;28;20714;-71
2021/08/05 13:34:56;;;;;;;2.42;1.50;;;;;;;;;;10475619;28;20200;-72
2021/08/05 13:39:59;;;;;;;3.42;1.40;;;;;;;;;;10470555;28;20220;-70
2021/08/05 13:45:04;;;;;;;3.28;1.80;;;;;;;;;;10474309;28;20193;-72
2021/08/05 13:50:13;;;;;;;1.85;1.23;;;;;;;;;;10481082;28;20310;-71
2021/08/05 13:55:16;;;;;;;1.17;1.08;;;;;;;;;;10468260;28;20232;-71
2021/08/05 14:00:26;;;;;;;1.15;1.05;;;;;;;;;;10481723;28;20904;-71
2021/08/05 14:05:28;;;;;;;2.40;1.20;;;;;;;;;;10470431;28;20217;-71
2021/08/05 14:10:31;;;;;;;1.52;1.20;;;;;;;;;;10473629;28;20282;-72
2021/08/05 14:15:35;;;;;;;2.53;1.17;;;;;;;;;;10480662;28;20196;-72
2021/08/05 14:20:37;;;;;;;1.90;1.15;;;;;;;;;;10473876;28;20248;-71
2021/08/05 14:25:40;;;;;;;2.45;1.20;;;;;;;;;;10474600;28;20279;-72
2021/08/05 14:30:44;;;;;;;1.30;1.20;;;;;;;;;;10468519;28;20237;-72
2021/08/05 14:35:47;;;;;;;1.42;1.20;;;;;;;;;;10467434;28;20574;-70
2021/08/05 14:40:49;;;;;;;1.60;1.00;;;;;;;;;;10474137;28;20719;-71
2021/08/05 14:45:53;;;;;;;2.53;1.20;;;;;;;;;;10471844;28;20204;-72
2021/08/05 14:50:56;;;;;;;1.88;1.35;;;;;;;;;;10468557;28;20205;-72
2021/08/05 14:55:58;;;;;;;1.40;1.20;;;;;;;;;;10473001;28;20197;-72
2021/08/05 15:01:04;;;;;;;1.65;1.10;;;;;;;;;;10480267;28;20287;-72
2021/08/05 15:06:07;;;;;;;3.25;1.33;;;;;;;;;;10483964;28;20189;-72
2021/08/05 15:11:10;;;;;;;2.72;1.17;;;;;;;;;;10480679;28;20204;-72
2021/08/05 15:16:14;;;;;;;1.88;1.05;;;;;;;;;;10488004;28;20204;-69
2021/08/05 15:21:16;;;;;;;9.77;4.32;;;;;;;;;;10485785;28;20635;-70
2021/08/05 15:26:19;;;;;;;2.42;1.20;;;;;;;;;;10482034;28;20609;-72
2021/08/05 15:31:23;;;;;;;3.15;1.20;;;;;;;;;;10486626;28;20200;-72
2021/08/05 15:36:26;;;;;;;2.13;1.27;;;;;;;;;;10488053;28;20307;-72
2021/08/05 15:41:31;;;;;;;2.95;1.50;;;;;;;;;;10481145;28;20216;-72
2021/08/05 15:46:35;;;;;;;3.13;1.33;;;;;;;;;;10485879;28;20326;-72
2021/08/05 15:51:38;;;;;;;2.08;1.40;;;;;;;;;;10479174;28;20243;-71
2021/08/05 15:56:42;;;;;;;2.85;1.40;;;;;;;;;;10487839;28;20295;-70
2021/08/05 16:01:46;;;;;;;1.25;1.15;;;;;;;;;;10486267;28;20204;-70
2021/08/05 16:06:49;;;;;;;3.97;1.52;;;;;;;;;;10482073;28;20213;-70
2021/08/05 16:11:51;;;;;;;1.27;1.00;;;;;;;;;;10481267;28;20192;-69
2021/08/05 16:16:56;;;;;;;2.45;1.40;;;;;;;;;;10481184;28;20212;-69
2021/08/05 16:21:59;;;;;;;1.80;1.15;;;;;;;;;;10474836;28;20248;-70
2021/08/05 16:27:01;;;;;;;1.85;1.20;;;;;;;;;;10481445;28;20563;-71
2021/08/05 16:32:06;;;;;;;2.97;1.20;;;;;;;;;;10476251;28;20185;-71
2021/08/05 16:37:09;;;;;;;2.47;1.15;;;;;;;;;;10476574;28;20522;-70
2021/08/05 16:42:12;;;;;;;2.55;1.30;;;;;;;;;;10458122;28;20279;-69
2021/08/05 16:47:15;;;;;;;1.52;1.00;;;;;;;;;;10478602;28;20208;-70
2021/08/05 16:52:18;;;;;;;2.03;0.73;;;;;;;;;;10475369;28;20537;-72
2021/08/05 16:57:21;;;;;;;2.80;1.17;;;;;;;;;;10486633;28;20252;-71
2021/08/05 17:02:25;;;;;;;3.17;1.17;;;;;;;;;;10478398;28;20649;-72
2021/08/05 17:07:27;;;;;;;4.83;1.93;;;;;;;;;;10469451;28;20217;-71
2021/08/05 17:12:30;;;;;;;5.20;1.73;;;;;;;;;;10472983;28;20216;-72
2021/08/05 17:17:34;;;;;;;5.80;2.60;;;;;;;;;;10470714;28;20693;-71
2021/08/05 17:22:36;;;;;;;6.83;2.03;;;;;;;;;;10473798;28;20240;-73
2021/08/05 17:27:39;;;;;;;12.87;7.57;;;;;;;;;;10463030;28;20289;-71
2021/08/05 17:32:43;;;;;;;5.20;2.70;;;;;;;;;;10472621;28;20181;-72
2021/08/05 17:37:45;;;;;;;4.13;1.90;;;;;;;;;;10480163;28;20215;-72
2021/08/05 17:42:49;;;;;;;3.30;1.50;;;;;;;;;;10467342;28;20252;-72
2021/08/05 17:47:55;;;;;;;3.33;1.43;;;;;;;;;;10464662;28;20226;-73
2021/08/05 17:52:58;;;;;;;5.30;2.27;;;;;;;;;;10461387;28;20224;-70
2021/08/05 17:58:00;;;;;;;2.67;1.50;;;;;;;;;;10475884;28;20208;-70
2021/08/05 18:03:04;;;;;;;4.20;1.60;;;;;;;;;;10477049;28;20349;-71
2021/08/05 18:08:08;;;;;;;2.80;1.50;;;;;;;;;;10474111;28;20271;-74
2021/08/05 18:13:11;;;;;;;4.33;1.60;;;;;;;;;;10470322;28;20216;-71
2021/08/05 18:18:15;;;;;;;5.70;2.27;;;;;;;;;;10481646;28;20231;-72
2021/08/05 18:23:18;;;;;;;2.60;1.60;;;;;;;;;;10472087;28;20764;-72
2021/08/05 18:28:20;;;;;;;8.37;4.23;;;;;;;;;;10477786;28;20212;-72
2021/08/05 18:33:24;;;;;;;6.60;3.20;;;;;;;;;;10473681;28;20193;-73
2021/08/05 18:38:27;;;;;;;6.40;3.17;;;;;;;;;;10488603;28;20299;-72
2021/08/05 18:43:29;;;;;;;4.97;2.07;;;;;;;;;;10482090;28;20244;-71
2021/08/05 18:48:33;;;;;;;4.43;2.10;;;;;;;;;;10486219;28;20220;-72
2021/08/05 18:53:36;;;;;;;7.63;3.73;;;;;;;;;;10483453;28;20227;-73
2021/08/05 18:58:38;;;;;;;5.07;2.30;;;;;;;;;;10477225;28;20654;-71
2021/08/05 19:03:42;;;;;;;4.77;1.87;;;;;;;;;;10481630;28;20239;-73
2021/08/05 19:08:45;;;;;;;4.90;2.07;;;;;;;;;;10481451;28;20240;-72
2021/08/05 19:13:47;;;;;;;6.33;2.53;;;;;;;;;;10486030;28;20187;-72
2021/08/05 19:18:51;;;;;;;5.07;1.77;;;;;;;;;;10488211;28;20301;-73
2021/08/05 19:23:54;;;;;;;4.70;1.63;;;;;;;;;;10485613;28;20209;-71
2021/08/05 19:28:56;;;;;;;4.17;1.90;;;;;;;;;;10487246;28;20280;-72
2021/08/05 19:34:00;;;;;;;3.40;1.80;;;;;;;;;;10489153;28;20623;-72
2021/08/05 19:39:03;;;;;;;4.37;1.90;;;;;;;;;;10487316;28;20223;-74
2021/08/05 19:44:06;;;;;;;4.30;1.90;;;;;;;;;;10485457;28;20244;-72
2021/08/05 19:49:11;;;;;;;4.60;1.83;;;;;;;;;;10485893;28;20228;-73
2021/08/05 19:54:14;;;;;;;6.37;2.50;;;;;;;;;;10488475;28;20184;-71
2021/08/05 19:59:17;;;;;;;5.50;2.77;;;;;;;;;;10485745;28;20723;-72
2021/08/05 20:04:20;;;;;;;18.33;10.30;;;;;;;;;;10486029;28;20304;-73
2021/08/05 20:09:23;;;;;;;5.20;2.60;;;;;;;;;;10489725;28;20548;-71
2021/08/05 20:14:25;;;;;;;5.97;2.83;;;;;;;;;;10480890;28;20879;-71
2021/08/05 20:19:30;;;;;;;5.23;2.33;;;;;;;;;;10484324;28;20232;-70
2021/08/05 20:24:32;;;;;;;5.97;2.50;;;;;;;;;;10488928;28;20578;-70
2021/08/05 20:29:35;;;;;;;3.50;1.67;;;;;;;;;;10486583;28;20931;-71
2021/08/05 20:34:39;;;;;;;5.33;1.80;;;;;;;;;;10477549;28;20680;-70
2021/08/05 20:39:41;;;;;;;4.80;2.00;;;;;;;;;;10483036;28;20213;-71
2021/08/05 20:44:44;;;;;;;2.87;1.67;;;;;;;;;;10470557;28;20266;-71
2021/08/05 20:49:47;;;;;;;4.30;2.10;;;;;;;;;;10489388;28;20250;-70
2021/08/05 20:54:50;;;;;;;3.40;1.60;;;;;;;;;;10481995;28;20627;-71
2021/08/05 20:59:52;;;;;;;4.37;1.70;;;;;;;;;;10476720;28;20215;-70
2021/08/05 21:04:56;;;;;;;3.77;1.70;;;;;;;;;;10474665;28;20340;-72
2021/08/05 21:09:59;;;;;;;2.47;1.53;;;;;;;;;;10473473;28;20287;-71
2021/08/05 21:15:01;;;;;;;4.33;1.67;;;;;;;;;;10472946;28;20189;-71
2021/08/05 21:20:06;;;;;;;3.50;1.77;;;;;;;;;;10473066;28;20258;-70
2021/08/05 21:25:09;;;;;;;2.20;1.27;;;;;;;;;;10473911;28;20213;-70
2021/08/05 21:30:12;;;;;;;3.10;1.50;;;;;;;;;;10481997;28;20220;-72
2021/08/05 21:35:16;;;;;;;3.13;1.20;;;;;;;;;;10476146;28;20200;-70
2021/08/05 21:40:19;;;;;;;2.17;1.33;;;;;;;;;;10485576;28;20219;-72
2021/08/05 21:45:21;;;;;;;3.77;1.60;;;;;;;;;;10476380;28;20212;-72
2021/08/05 21:50:31;;;;;;;3.00;1.60;;;;;;;;;;10477086;28;20255;-70
2021/08/05 21:55:34;;;;;;;2.80;1.50;;;;;;;;;;10467583;28;20188;-70
2021/08/05 22:00:37;;;;;;;3.03;1.43;;;;;;;;;;10474208;28;20228;-71
2021/08/05 22:05:41;;;;;;;2.17;1.40;;;;;;;;;;10473482;28;20281;-73
2021/08/05 22:10:43;;;;;;;3.53;1.50;;;;;;;;;;10474591;28;20247;-70
2021/08/05 22:15:46;;;;;;;3.63;1.67;;;;;;;;;;10468528;28;20205;-73
2021/08/05 22:20:51;;;;;;;1.87;1.40;;;;;;;;;;10476686;28;20643;-73
2021/08/05 22:25:54;;;;;;;3.23;1.90;;;;;;;;;;10474066;28;20224;-72
2021/08/05 22:30:56;;;;;;;2.53;1.40;;;;;;;;;;10470154;28;20511;-72
2021/08/05 22:36:00;;;;;;;2.67;1.40;;;;;;;;;;10472889;28;20271;-72
2021/08/05 22:41:03;;;;;;;3.30;1.37;;;;;;;;;;10475119;28;20212;-72
2021/08/05 22:46:05;;;;;;;2.53;1.50;;;;;;;;;;10477564;28;20212;-73
2021/08/05 22:51:09;;;;;;;2.83;1.43;;;;;;;;;;10475685;28;20192;-72
2021/08/05 22:56:12;;;;;;;4.23;1.50;;;;;;;;;;10472761;28;20184;-72
2021/08/05 23:01:15;;;;;;;2.07;1.30;;;;;;;;;;10474072;28;20181;-71
2021/08/05 23:06:19;;;;;;;2.77;1.40;;;;;;;;;;10468793;28;20208;-70
2021/08/05 23:11:21;;;;;;;2.87;1.47;;;;;;;;;;10473741;28;20274;-69
2021/08/05 23:16:24;;;;;;;2.03;1.30;;;;;;;;;;10472701;28;20248;-70
2021/08/05 23:21:28;;;;;;;2.30;1.37;;;;;;;;;;10482545;28;20200;-70
2021/08/05 23:26:30;;;;;;;2.67;1.40;;;;;;;;;;10488299;28;20216;-73
2021/08/05 23:31:34;;;;;;;3.00;1.20;;;;;;;;;;10484967;28;20200;-72
2021/08/05 23:36:38;;;;;;;2.20;1.10;;;;;;;;;;10484696;28;20212;-72
2021/08/05 23:41:41;;;;;;;2.17;1.30;;;;;;;;;;10479488;28;20761;-71
2021/08/05 23:46:43;;;;;;;2.50;1.27;;;;;;;;;;10485320;28;20259;-71
2021/08/05 23:51:47;;;;;;;3.20;1.37;;;;;;;;;;10478118;28;20189;-73
2021/08/05 23:56:50;;;;;;;2.83;1.30;;;;;;;;;;10477805;28;20240;-71
